sensor_id;sensor_type;location;lat;lon;timestamp;pressure;altitude;pressure_sealevel;temperature;humidity
54270;BME280;40181;51.560;13.000;2023-03-25T00:01:41;99586.81;;;9.72;96.75
54270;BME280;40181;51.560;13.000;2023-03-25T00:04:10;99588.53;;;9.59;97.07
54270;BME280;40181;51.560;13.000;2023-03-25T00:06:42;99583.31;;;9.65;97.52
54270;BME280;40181;51.560;13.000;2023-03-25T00:09:11;99594.59;;;9.37;98.57
54270;BME280;40181;51.560;13.000;2023-03-25T00:11:42;99592.03;;;9.56;98.81
54270;BME280;40181;51.560;13.000;2023-03-25T00:14:11;99583.31;;;9.68;97.84
54270;BME280;40181;51.560;13.000;2023-03-25T00:16:41;99578.94;;;9.54;98.60
54270;BME280;40181;51.560;13.000;2023-03-25T00:19:12;99588.53;;;9.57;98.41
54270;BME280;40181;51.560;13.000;2023-03-25T00:21:42;99582.38;;;9.41;98.67
54270;BME280;40181;51.560;13.000;2023-03-25T00:24:14;99577.16;;;9.67;98.16
54270;BME280;40181;51.560;13.000;2023-03-25T00:26:46;99577.16;;;9.38;98.66
54270;BME280;40181;51.560;13.000;2023-03-25T00:29:16;99570.19;;;9.59;98.44
54270;BME280;40181;51.560;13.000;2023-03-25T00:31:45;99552.72;;;9.59;97.95
54270;BME280;40181;51.560;13.000;2023-03-25T00:34:14;99569.25;;;9.39;98.56
54270;BME280;40181;51.560;13.000;2023-03-25T00:36:44;99550.06;;;9.39;98.74
54270;BME280;40181;51.560;13.000;2023-03-25T00:39:13;99545.69;;;9.53;98.30
54270;BME280;40181;51.560;13.000;2023-03-25T00:41:42;99541.34;;;9.62;97.04
54270;BME280;40181;51.560;13.000;2023-03-25T00:44:14;99552.72;;;9.54;97.56
54270;BME280;40181;51.560;13.000;2023-03-25T00:46:43;99543.06;;;9.46;97.51
54270;BME280;40181;51.560;13.000;2023-03-25T00:49:12;99548.28;;;9.39;98.22
54270;BME280;40181;51.560;13.000;2023-03-25T00:51:41;99550.94;;;9.43;97.38
54270;BME280;40181;51.560;13.000;2023-03-25T00:54:10;99556.22;;;9.66;96.90
54270;BME280;40181;51.560;13.000;2023-03-25T00:56:41;99543.06;;;9.50;96.94
54270;BME280;40181;51.560;13.000;2023-03-25T00:59:13;99557.88;;;9.36;97.46
54270;BME280;40181;51.560;13.000;2023-03-25T01:01:42;99556.19;;;9.60;96.68
54270;BME280;40181;51.560;13.000;2023-03-25T01:04:11;99552.69;;;9.51;96.87
54270;BME280;40181;51.560;13.000;2023-03-25T01:06:40;99550.06;;;9.53;97.25
54270;BME280;40181;51.560;13.000;2023-03-25T01:09:12;99544.84;;;9.54;97.06
54270;BME280;40181;51.560;13.000;2023-03-25T01:11:42;99549.19;;;9.41;97.17
54270;BME280;40181;51.560;13.000;2023-03-25T01:14:17;99536.97;;;9.51;96.87
54270;BME280;40181;51.560;13.000;2023-03-25T01:16:48;99539.56;;;9.37;97.18
54270;BME280;40181;51.560;13.000;2023-03-25T01:19:17;99536.09;;;9.51;96.92
54270;BME280;40181;51.560;13.000;2023-03-25T01:21:46;99527.31;;;9.35;96.85
54270;BME280;40181;51.560;13.000;2023-03-25T01:24:15;99529.06;;;9.37;97.22
54270;BME280;40181;51.560;13.000;2023-03-25T01:26:45;99527.34;;;9.50;96.10
54270;BME280;40181;51.560;13.000;2023-03-25T01:29:18;99524.69;;;9.29;97.09
54270;BME280;40181;51.560;13.000;2023-03-25T01:31:48;99535.19;;;9.33;96.79
54270;BME280;40181;51.560;13.000;2023-03-25T01:34:18;99529.03;;;9.23;97.21
54270;BME280;40181;51.560;13.000;2023-03-25T01:36:47;99523.78;;;9.17;97.52
54270;BME280;40181;51.560;13.000;2023-03-25T01:39:20;99513.31;;;9.11;98.04
54270;BME280;40181;51.560;13.000;2023-03-25T01:41:49;99512.41;;;9.10;97.31
54270;BME280;40181;51.560;13.000;2023-03-25T01:47:36;99500.25;;;9.30;96.67
54270;BME280;40181;51.560;13.000;2023-03-25T01:50:06;99496.75;;;9.31;96.55
54270;BME280;40181;51.560;13.000;2023-03-25T01:52:40;99495.84;;;9.21;96.80
54270;BME280;40181;51.560;13.000;2023-03-25T01:55:13;99493.25;;;9.35;95.87
54270;BME280;40181;51.560;13.000;2023-03-25T01:57:45;99483.66;;;9.51;95.31
54270;BME280;40181;51.560;13.000;2023-03-25T02:00:19;99476.63;;;9.36;95.44
54270;BME280;40181;51.560;13.000;2023-03-25T02:02:51;99472.28;;;9.58;94.77
54270;BME280;40181;51.560;13.000;2023-03-25T02:05:28;99469.66;;;9.60;94.11
54270;BME280;40181;51.560;13.000;2023-03-25T02:08:03;99472.28;;;9.38;94.26
54270;BME280;40181;51.560;13.000;2023-03-25T02:10:33;99466.19;;;9.62;93.28
54270;BME280;40181;51.560;13.000;2023-03-25T02:13:04;99463.56;;;9.48;93.77
54270;BME280;40181;51.560;13.000;2023-03-25T02:15:44;99462.69;;;9.59;92.15
54270;BME280;40181;51.560;13.000;2023-03-25T02:18:28;99481.91;;;9.61;91.20
54270;BME280;40181;51.560;13.000;2023-03-25T02:21:24;99460.03;;;9.71;89.93
54270;BME280;40181;51.560;13.000;2023-03-25T02:24:38;99458.28;;;9.75;88.98
54270;BME280;40181;51.560;13.000;2023-03-25T02:27:21;99453.03;;;9.79;87.73
54270;BME280;40181;51.560;13.000;2023-03-25T02:30:29;99439.06;;;9.77;87.70
54270;BME280;40181;51.560;13.000;2023-03-25T02:36:46;99447.81;;;9.67;88.75
54270;BME280;40181;51.560;13.000;2023-03-25T02:39:35;99432.94;;;9.69;88.85
54270;BME280;40181;51.560;13.000;2023-03-25T02:42:14;99435.56;;;9.72;88.99
54270;BME280;40181;51.560;13.000;2023-03-25T02:44:52;99438.19;;;9.63;89.25
54270;BME280;40181;51.560;13.000;2023-03-25T02:47:26;99429.44;;;9.75;89.07
54270;BME280;40181;51.560;13.000;2023-03-25T02:50:03;99433.81;;;9.66;89.30
54270;BME280;40181;51.560;13.000;2023-03-25T02:52:36;99429.47;;;9.78;88.99
54270;BME280;40181;51.560;13.000;2023-03-25T02:55:12;99425.06;;;9.72;89.35
54270;BME280;40181;51.560;13.000;2023-03-25T02:57:45;99430.34;;;9.66;89.71
54270;BME280;40181;51.560;13.000;2023-03-25T03:00:19;99429.47;;;9.53;90.51
54270;BME280;40181;51.560;13.000;2023-03-25T03:02:55;99435.59;;;9.66;90.31
54270;BME280;40181;51.560;13.000;2023-03-25T03:05:28;99422.47;;;9.44;92.07
54270;BME280;40181;51.560;13.000;2023-03-25T03:08:07;99422.47;;;9.53;91.26
54270;BME280;40181;51.560;13.000;2023-03-25T03:10:56;99422.50;;;9.47;91.96
54270;BME280;40181;51.560;13.000;2023-03-25T03:13:41;99418.97;;;9.40;92.05
54270;BME280;40181;51.560;13.000;2023-03-25T03:16:23;99432.09;;;9.51;92.57
54270;BME280;40181;51.560;13.000;2023-03-25T03:19:06;99436.44;;;9.34;92.94
54270;BME280;40181;51.560;13.000;2023-03-25T03:21:47;99423.38;;;9.46;93.43
54270;BME280;40181;51.560;13.000;2023-03-25T03:24:23;99425.09;;;9.44;93.11
54270;BME280;40181;51.560;13.000;2023-03-25T03:27:03;99435.56;;;9.44;93.75
54270;BME280;40181;51.560;13.000;2023-03-25T03:29:43;99442.59;;;9.34;94.37
54270;BME280;40181;51.560;13.000;2023-03-25T03:32:16;99442.56;;;9.33;94.47
54270;BME280;40181;51.560;13.000;2023-03-25T03:34:48;99443.44;;;9.21;94.97
54270;BME280;40181;51.560;13.000;2023-03-25T03:37:24;99443.44;;;9.50;93.61
54270;BME280;40181;51.560;13.000;2023-03-25T03:39:56;99444.31;;;9.40;93.76
54270;BME280;40181;51.560;13.000;2023-03-25T03:42:32;99450.41;;;9.17;95.17
54270;BME280;40181;51.560;13.000;2023-03-25T03:45:07;99453.03;;;9.05;95.81
54270;BME280;40181;51.560;13.000;2023-03-25T03:47:42;99450.41;;;9.02;96.37
54270;BME280;40181;51.560;13.000;2023-03-25T03:50:18;99448.66;;;9.11;96.15
54270;BME280;40181;51.560;13.000;2023-03-25T03:52:53;99449.53;;;9.13;96.47
54270;BME280;40181;51.560;13.000;2023-03-25T03:55:31;99448.69;;;9.10;96.75
54270;BME280;40181;51.560;13.000;2023-03-25T03:58:10;99452.16;;;9.15;96.18
54270;BME280;40181;51.560;13.000;2023-03-25T04:00:45;99453.94;;;9.19;96.15
54270;BME280;40181;51.560;13.000;2023-03-25T04:03:20;99452.16;;;9.12;96.37
54270;BME280;40181;51.560;13.000;2023-03-25T04:05:56;99453.03;;;9.09;96.12
54270;BME280;40181;51.560;13.000;2023-03-25T04:08:33;99451.28;;;9.13;96.43
54270;BME280;40181;51.560;13.000;2023-03-25T04:11:10;99468.72;;;8.95;96.88
54270;BME280;40181;51.560;13.000;2023-03-25T04:13:49;99471.34;;;9.03;96.30
54270;BME280;40181;51.560;13.000;2023-03-25T04:16:21;99467.88;;;9.12;96.37
54270;BME280;40181;51.560;13.000;2023-03-25T04:18:49;99473.06;;;8.92;96.98
54270;BME280;40181;51.560;13.000;2023-03-25T04:21:19;99457.41;;;9.07;96.83
54270;BME280;40181;51.560;13.000;2023-03-25T04:23:49;99460.88;;;8.92;97.51
54270;BME280;40181;51.560;13.000;2023-03-25T04:26:18;99463.53;;;9.11;97.04
54270;BME280;40181;51.560;13.000;2023-03-25T04:28:50;99476.63;;;9.22;96.52
54270;BME280;40181;51.560;13.000;2023-03-25T04:31:19;99472.25;;;9.01;97.86
54270;BME280;40181;51.560;13.000;2023-03-25T04:33:50;99464.38;;;9.08;97.47
54270;BME280;40181;51.560;13.000;2023-03-25T04:36:19;99474.00;;;9.16;97.91
54270;BME280;40181;51.560;13.000;2023-03-25T04:38:48;99475.75;;;9.17;96.94
54270;BME280;40181;51.560;13.000;2023-03-25T04:41:17;99484.47;;;9.08;96.02
54270;BME280;40181;51.560;13.000;2023-03-25T04:43:46;99477.50;;;9.10;95.99
54270;BME280;40181;51.560;13.000;2023-03-25T04:46:18;99477.50;;;9.08;94.85
54270;BME280;40181;51.560;13.000;2023-03-25T04:48:47;99476.63;;;9.22;94.13
54270;BME280;40181;51.560;13.000;2023-03-25T04:51:18;99467.94;;;9.32;94.05
54270;BME280;40181;51.560;13.000;2023-03-25T04:53:47;99481.00;;;9.17;94.22
54270;BME280;40181;51.560;13.000;2023-03-25T04:56:17;99477.53;;;9.32;94.10
54270;BME280;40181;51.560;13.000;2023-03-25T04:58:50;99476.69;;;9.54;93.22
54270;BME280;40181;51.560;13.000;2023-03-25T05:01:24;99480.13;;;9.39;93.50
54270;BME280;40181;51.560;13.000;2023-03-25T05:03:56;99478.34;;;9.18;94.75
54270;BME280;40181;51.560;13.000;2023-03-25T05:06:30;99488.84;;;9.13;94.95
54270;BME280;40181;51.560;13.000;2023-03-25T05:09:00;99474.88;;;9.25;94.48
54270;BME280;40181;51.560;13.000;2023-03-25T05:11:32;99468.78;;;9.23;93.77
54270;BME280;40181;51.560;13.000;2023-03-25T05:14:06;99494.09;;;9.17;92.21
54270;BME280;40181;51.560;13.000;2023-03-25T05:16:36;99490.63;;;9.24;90.55
54270;BME280;40181;51.560;13.000;2023-03-25T05:19:06;99474.91;;;9.29;89.64
54270;BME280;40181;51.560;13.000;2023-03-25T05:21:38;99487.13;;;9.30;86.40
54270;BME280;40181;51.560;13.000;2023-03-25T05:24:09;99490.63;;;9.35;85.59
54270;BME280;40181;51.560;13.000;2023-03-25T05:26:39;99485.41;;;9.33;84.87
54270;BME280;40181;51.560;13.000;2023-03-25T05:29:12;99477.50;;;9.30;83.97
54270;BME280;40181;51.560;13.000;2023-03-25T05:31:44;99483.66;;;9.37;83.05
54270;BME280;40181;51.560;13.000;2023-03-25T05:34:13;99478.41;;;9.35;81.99
54270;BME280;40181;51.560;13.000;2023-03-25T05:36:45;99462.66;;;9.26;80.27
54270;BME280;40181;51.560;13.000;2023-03-25T05:39:14;99478.38;;;9.20;78.46
54270;BME280;40181;51.560;13.000;2023-03-25T05:41:43;99487.97;;;9.21;79.69
54270;BME280;40181;51.560;13.000;2023-03-25T05:44:14;99478.34;;;9.18;79.73
54270;BME280;40181;51.560;13.000;2023-03-25T05:46:43;99492.34;;;9.26;78.50
54270;BME280;40181;51.560;13.000;2023-03-25T05:49:12;99482.75;;;9.22;77.43
54270;BME280;40181;51.560;13.000;2023-03-25T05:51:41;99482.75;;;9.21;77.21
54270;BME280;40181;51.560;13.000;2023-03-25T05:54:14;99490.63;;;9.35;78.05
54270;BME280;40181;51.560;13.000;2023-03-25T05:56:43;99489.75;;;9.40;77.27
54270;BME280;40181;51.560;13.000;2023-03-25T05:59:15;99477.53;;;9.29;77.89
54270;BME280;40181;51.560;13.000;2023-03-25T06:01:44;99497.59;;;9.36;77.89
54270;BME280;40181;51.560;13.000;2023-03-25T06:04:14;99487.13;;;9.28;77.58
54270;BME280;40181;51.560;13.000;2023-03-25T06:06:43;99495.00;;;9.37;77.48
54270;BME280;40181;51.560;13.000;2023-03-25T06:09:12;99497.63;;;9.30;77.47
54270;BME280;40181;51.560;13.000;2023-03-25T06:11:42;99494.13;;;9.31;77.45
54270;BME280;40181;51.560;13.000;2023-03-25T06:14:20;99509.81;;;9.24;77.37
54270;BME280;40181;51.560;13.000;2023-03-25T06:16:49;99507.22;;;9.38;77.51
54270;BME280;40181;51.560;13.000;2023-03-25T06:19:20;99501.97;;;9.31;77.28
54270;BME280;40181;51.560;13.000;2023-03-25T06:21:51;99504.63;;;9.37;77.67
54270;BME280;40181;51.560;13.000;2023-03-25T06:24:20;99508.94;;;9.25;77.76
54270;BME280;40181;51.560;13.000;2023-03-25T06:26:49;99507.25;;;9.37;77.74
54270;BME280;40181;51.560;13.000;2023-03-25T06:30:33;99512.50;;;9.49;77.58
54270;BME280;40181;51.560;13.000;2023-03-25T06:33:02;99521.22;;;9.42;76.46
54270;BME280;40181;51.560;13.000;2023-03-25T06:35:31;99523.84;;;9.47;77.00
54270;BME280;40181;51.560;13.000;2023-03-25T06:38:01;99519.50;;;9.52;76.63
54270;BME280;40181;51.560;13.000;2023-03-25T06:40:30;99526.47;;;9.47;76.90
54270;BME280;40181;51.560;13.000;2023-03-25T06:42:59;99532.56;;;9.49;77.18
54270;BME280;40181;51.560;13.000;2023-03-25T06:45:28;99533.47;;;9.49;76.04
54270;BME280;40181;51.560;13.000;2023-03-25T06:48:00;99531.69;;;9.37;76.38
54270;BME280;40181;51.560;13.000;2023-03-25T06:50:30;99553.47;;;9.16;76.76
54270;BME280;40181;51.560;13.000;2023-03-25T06:52:59;99550.91;;;9.29;76.48
54270;BME280;40181;51.560;13.000;2023-03-25T06:55:28;99539.56;;;9.33;75.66
54270;BME280;40181;51.560;13.000;2023-03-25T06:57:58;99535.19;;;9.35;75.09
54270;BME280;40181;51.560;13.000;2023-03-25T07:00:27;99536.09;;;9.41;74.11
54270;BME280;40181;51.560;13.000;2023-03-25T07:02:56;99533.44;;;9.48;74.05
54270;BME280;40181;51.560;13.000;2023-03-25T07:05:27;99517.72;;;9.43;73.37
54270;BME280;40181;51.560;13.000;2023-03-25T07:07:57;99522.09;;;9.49;72.85
54270;BME280;40181;51.560;13.000;2023-03-25T07:10:26;99544.81;;;9.51;73.02
54270;BME280;40181;51.560;13.000;2023-03-25T07:12:55;99521.25;;;9.58;72.40
54270;BME280;40181;51.560;13.000;2023-03-25T07:15:24;99529.97;;;9.60;72.24
54270;BME280;40181;51.560;13.000;2023-03-25T07:17:53;99528.25;;;9.69;72.11
54270;BME280;40181;51.560;13.000;2023-03-25T07:20:25;99549.22;;;9.68;73.60
54270;BME280;40181;51.560;13.000;2023-03-25T07:22:54;99540.47;;;9.72;73.00
54270;BME280;40181;51.560;13.000;2023-03-25T07:25:23;99538.72;;;9.65;73.33
54270;BME280;40181;51.560;13.000;2023-03-25T07:27:52;99547.47;;;9.64;72.75
54270;BME280;40181;51.560;13.000;2023-03-25T07:30:21;99543.09;;;9.72;72.80
54270;BME280;40181;51.560;13.000;2023-03-25T07:32:50;99538.75;;;9.93;72.18
54270;BME280;40181;51.560;13.000;2023-03-25T07:35:19;99540.47;;;9.92;72.40
54270;BME280;40181;51.560;13.000;2023-03-25T07:37:51;99536.09;;;10.01;71.73
54270;BME280;40181;51.560;13.000;2023-03-25T07:40:20;99540.47;;;10.09;72.01
54270;BME280;40181;51.560;13.000;2023-03-25T07:42:49;99554.47;;;10.13;71.95
54270;BME280;40181;51.560;13.000;2023-03-25T07:45:18;99558.81;;;10.16;71.41
54270;BME280;40181;51.560;13.000;2023-03-25T07:47:47;99539.59;;;10.04;71.07
54270;BME280;40181;51.560;13.000;2023-03-25T07:50:17;99554.47;;;10.13;71.50
54270;BME280;40181;51.560;13.000;2023-03-25T07:52:47;99554.47;;;10.12;71.64
54270;BME280;40181;51.560;13.000;2023-03-25T07:55:19;99559.69;;;10.21;71.93
54270;BME280;40181;51.560;13.000;2023-03-25T07:57:49;99576.31;;;10.07;71.86
54270;BME280;40181;51.560;13.000;2023-03-25T08:00:18;99583.31;;;10.30;71.47
54270;BME280;40181;51.560;13.000;2023-03-25T08:02:48;99573.69;;;10.28;70.20
54270;BME280;40181;51.560;13.000;2023-03-25T08:05:17;99578.94;;;10.07;71.96
54270;BME280;40181;51.560;13.000;2023-03-25T08:07:50;99573.72;;;10.10;73.99
54270;BME280;40181;51.560;13.000;2023-03-25T08:10:25;99586.81;;;9.89;75.27
54270;BME280;40181;51.560;13.000;2023-03-25T08:12:54;99585.09;;;10.05;76.08
54270;BME280;40181;51.560;13.000;2023-03-25T08:15:23;99590.31;;;9.94;77.45
54270;BME280;40181;51.560;13.000;2023-03-25T08:17:52;99591.19;;;9.65;78.24
54270;BME280;40181;51.560;13.000;2023-03-25T08:20:21;99603.41;;;9.69;77.03
54270;BME280;40181;51.560;13.000;2023-03-25T08:22:53;99598.97;;;9.32;76.88
54270;BME280;40181;51.560;13.000;2023-03-25T08:25:23;99599.84;;;9.33;77.78
54270;BME280;40181;51.560;13.000;2023-03-25T08:27:53;99610.34;;;9.34;78.33
54270;BME280;40181;51.560;13.000;2023-03-25T08:30:23;99597.22;;;9.30;78.88
54270;BME280;40181;51.560;13.000;2023-03-25T08:32:52;99598.06;;;9.22;78.99
54270;BME280;40181;51.560;13.000;2023-03-25T08:35:22;99594.59;;;9.37;79.06
54270;BME280;40181;51.560;13.000;2023-03-25T08:37:54;99598.09;;;9.32;78.56
54270;BME280;40181;51.560;13.000;2023-03-25T08:40:25;99600.69;;;9.25;79.28
54270;BME280;40181;51.560;13.000;2023-03-25T08:42:54;99593.78;;;9.68;79.12
54270;BME280;40181;51.560;13.000;2023-03-25T08:45:23;99586.78;;;9.65;79.93
54270;BME280;40181;51.560;13.000;2023-03-25T08:47:52;99600.75;;;9.43;80.29
54270;BME280;40181;51.560;13.000;2023-03-25T08:50:25;99589.41;;;9.62;79.53
54270;BME280;40181;51.560;13.000;2023-03-25T08:52:57;99587.69;;;9.61;80.32
54270;BME280;40181;51.560;13.000;2023-03-25T08:55:27;99599.94;;;9.73;81.02
54270;BME280;40181;51.560;13.000;2023-03-25T08:58:00;99592.94;;;9.74;80.24
54270;BME280;40181;51.560;13.000;2023-03-25T09:00:30;99592.94;;;9.71;80.44
54270;BME280;40181;51.560;13.000;2023-03-25T09:03:00;99588.56;;;9.68;80.78
54270;BME280;40181;51.560;13.000;2023-03-25T09:05:30;99595.53;;;9.69;81.00
54270;BME280;40181;51.560;13.000;2023-03-25T09:08:02;99591.19;;;9.80;80.97
54270;BME280;40181;51.560;13.000;2023-03-25T09:10:33;99602.56;;;9.84;80.09
54270;BME280;40181;51.560;13.000;2023-03-25T09:13:02;99600.81;;;9.81;80.58
54270;BME280;40181;51.560;13.000;2023-03-25T09:15:31;99606.94;;;9.91;80.53
54270;BME280;40181;51.560;13.000;2023-03-25T09:18:01;99596.38;;;9.57;82.06
54270;BME280;40181;51.560;13.000;2023-03-25T09:20:31;99611.28;;;9.64;82.37
54270;BME280;40181;51.560;13.000;2023-03-25T09:23:03;99599.00;;;9.41;83.20
54270;BME280;40181;51.560;13.000;2023-03-25T09:25:33;99613.00;;;9.48;86.27
54270;BME280;40181;51.560;13.000;2023-03-25T09:28:04;99617.25;;;9.15;88.06
54270;BME280;40181;51.560;13.000;2023-03-25T09:30:33;99608.63;;;9.52;89.56
54270;BME280;40181;51.560;13.000;2023-03-25T09:33:02;99615.56;;;9.36;89.82
54270;BME280;40181;51.560;13.000;2023-03-25T09:35:31;99618.22;;;9.51;90.13
54270;BME280;40181;51.560;13.000;2023-03-25T09:38:03;99623.47;;;9.47;90.76
54270;BME280;40181;51.560;13.000;2023-03-25T09:40:33;99611.22;;;9.36;90.93
54270;BME280;40181;51.560;13.000;2023-03-25T09:43:19;99623.31;;;9.05;94.43
54270;BME280;40181;51.560;13.000;2023-03-25T09:45:59;99610.19;;;9.00;95.27
54270;BME280;40181;51.560;13.000;2023-03-25T09:48:32;99601.59;;;9.27;94.74
54270;BME280;40181;51.560;13.000;2023-03-25T09:51:08;99604.19;;;9.23;92.41
54270;BME280;40181;51.560;13.000;2023-03-25T09:53:46;99601.59;;;9.43;94.58
54270;BME280;40181;51.560;13.000;2023-03-25T09:56:20;99610.38;;;9.48;94.50
54270;BME280;40181;51.560;13.000;2023-03-25T09:58:55;99601.69;;;9.79;94.65
54270;BME280;40181;51.560;13.000;2023-03-25T10:01:35;99606.94;;;9.94;91.41
54270;BME280;40181;51.560;13.000;2023-03-25T10:04:16;99598.19;;;9.92;88.58
54270;BME280;40181;51.560;13.000;2023-03-25T10:07:20;99605.19;;;9.95;88.04
54270;BME280;40181;51.560;13.000;2023-03-25T10:10:02;99601.69;;;10.02;87.29
54270;BME280;40181;51.560;13.000;2023-03-25T10:12:41;99592.94;;;10.22;84.95
54270;BME280;40181;51.560;13.000;2023-03-25T10:15:24;99603.47;;;10.23;84.11
54270;BME280;40181;51.560;13.000;2023-03-25T10:18:04;99585.94;;;10.21;81.35
54270;BME280;40181;51.560;13.000;2023-03-25T10:20:59;99578.06;;;10.26;80.38
54270;BME280;40181;51.560;13.000;2023-03-25T10:23:37;99578.91;;;10.37;81.04
54270;BME280;40181;51.560;13.000;2023-03-25T10:26:16;99564.94;;;10.44;80.06
54270;BME280;40181;51.560;13.000;2023-03-25T10:28:51;99565.78;;;10.51;80.47
54270;BME280;40181;51.560;13.000;2023-03-25T10:31:25;99577.19;;;10.44;80.95
54270;BME280;40181;51.560;13.000;2023-03-25T10:34:02;99573.69;;;10.51;79.90
54270;BME280;40181;51.560;13.000;2023-03-25T10:36:38;99562.25;;;10.71;77.96
54270;BME280;40181;51.560;13.000;2023-03-25T10:39:15;99566.59;;;10.86;77.22
54270;BME280;40181;51.560;13.000;2023-03-25T10:41:50;99566.63;;;10.76;74.07
54270;BME280;40181;51.560;13.000;2023-03-25T10:44:25;99560.41;;;10.95;72.62
54270;BME280;40181;51.560;13.000;2023-03-25T10:46:57;99557.81;;;10.91;72.54
54270;BME280;40181;51.560;13.000;2023-03-25T10:49:30;99566.56;;;10.89;70.13
54270;BME280;40181;51.560;13.000;2023-03-25T10:52:01;99563.94;;;10.90;70.57
54270;BME280;40181;51.560;13.000;2023-03-25T10:54:35;99553.50;;;10.76;70.83
54270;BME280;40181;51.560;13.000;2023-03-25T10:57:11;99553.34;;;11.09;71.18
54270;BME280;40181;51.560;13.000;2023-03-25T10:59:56;99542.69;;;11.29;69.89
54270;BME280;40181;51.560;13.000;2023-03-25T11:02:30;99556.00;;;11.03;68.30
54270;BME280;40181;51.560;13.000;2023-03-25T11:05:01;99553.41;;;10.92;66.93
54270;BME280;40181;51.560;13.000;2023-03-25T11:07:35;99555.22;;;10.79;66.13
54270;BME280;40181;51.560;13.000;2023-03-25T11:10:14;99591.13;;;10.71;67.81
54270;BME280;40181;51.560;13.000;2023-03-25T11:12:48;99580.66;;;10.58;74.26
54270;BME280;40181;51.560;13.000;2023-03-25T11:15:20;99585.06;;;10.16;78.01
54270;BME280;40181;51.560;13.000;2023-03-25T11:17:56;99566.72;;;9.94;80.86
54270;BME280;40181;51.560;13.000;2023-03-25T11:20:29;99567.56;;;10.30;80.97
54270;BME280;40181;51.560;13.000;2023-03-25T11:23:07;99551.84;;;10.07;78.47
54270;BME280;40181;51.560;13.000;2023-03-25T11:25:44;99548.31;;;10.37;79.30
54270;BME280;40181;51.560;13.000;2023-03-25T11:28:18;99540.31;;;10.83;79.16
54270;BME280;40181;51.560;13.000;2023-03-25T11:31:11;99545.44;;;11.12;77.45
54270;BME280;40181;51.560;13.000;2023-03-25T11:33:44;99531.44;;;11.09;73.21
54270;BME280;40181;51.560;13.000;2023-03-25T11:36:21;99515.47;;;11.41;71.95
54270;BME280;40181;51.560;13.000;2023-03-25T11:38:58;99507.47;;;11.55;70.62
54270;BME280;40181;51.560;13.000;2023-03-25T11:41:31;99521.75;;;11.18;69.43
54270;BME280;40181;51.560;13.000;2023-03-25T11:44:04;99527.00;;;11.17;68.96
54270;BME280;40181;51.560;13.000;2023-03-25T11:46:40;99516.50;;;11.15;69.47
54270;BME280;40181;51.560;13.000;2023-03-25T11:49:11;99528.78;;;11.13;67.11
54270;BME280;40181;51.560;13.000;2023-03-25T11:51:47;99517.41;;;11.10;66.99
54270;BME280;40181;51.560;13.000;2023-03-25T11:54:17;99521.81;;;11.01;66.15
54270;BME280;40181;51.560;13.000;2023-03-25T11:56:48;99525.34;;;11.03;65.30
54270;BME280;40181;51.560;13.000;2023-03-25T11:59:22;99521.81;;;11.07;65.88
54270;BME280;40181;51.560;13.000;2023-03-25T12:02:00;99524.34;;;11.23;65.35
54270;BME280;40181;51.560;13.000;2023-03-25T12:04:31;99504.97;;;11.37;66.20
54270;BME280;40181;51.560;13.000;2023-03-25T12:07:07;99509.25;;;11.53;65.14
54270;BME280;40181;51.560;13.000;2023-03-25T12:09:37;99492.56;;;11.54;63.94
54270;BME280;40181;51.560;13.000;2023-03-25T12:12:29;99491.44;;;11.83;64.18
54270;BME280;40181;51.560;13.000;2023-03-25T12:15:15;99502.91;;;11.81;63.21
54270;BME280;40181;51.560;13.000;2023-03-25T12:17:58;99492.47;;;11.68;62.78
54270;BME280;40181;51.560;13.000;2023-03-25T12:20:42;99495.28;;;11.46;62.29
54270;BME280;40181;51.560;13.000;2023-03-25T12:23:25;99495.16;;;11.62;61.96
54270;BME280;40181;51.560;13.000;2023-03-25T12:26:07;99492.56;;;11.56;61.66
54270;BME280;40181;51.560;13.000;2023-03-25T12:28:56;99489.00;;;11.63;61.94
54270;BME280;40181;51.560;13.000;2023-03-25T12:31:52;99488.06;;;11.72;61.52
54270;BME280;40181;51.560;13.000;2023-03-25T12:34:37;99480.16;;;11.75;61.66
54270;BME280;40181;51.560;13.000;2023-03-25T12:37:23;99465.88;;;11.99;61.52
54270;BME280;40181;51.560;13.000;2023-03-25T12:40:22;99480.94;;;11.85;59.64
54270;BME280;40181;51.560;13.000;2023-03-25T12:43:03;99465.88;;;12.04;59.15
54270;BME280;40181;51.560;13.000;2023-03-25T12:45:52;99453.66;;;11.90;59.01
54270;BME280;40181;51.560;13.000;2023-03-25T12:48:39;99458.25;;;11.70;59.27
54270;BME280;40181;51.560;13.000;2023-03-25T12:51:31;99446.72;;;11.86;59.68
54270;BME280;40181;51.560;13.000;2023-03-25T12:54:15;99445.94;;;11.73;59.45
54270;BME280;40181;51.560;13.000;2023-03-25T12:57:03;99451.22;;;11.72;59.69
54270;BME280;40181;51.560;13.000;2023-03-25T12:59:53;99452.06;;;11.75;60.14
54270;BME280;40181;51.560;13.000;2023-03-25T13:03:01;99447.59;;;11.85;60.08
54270;BME280;40181;51.560;13.000;2023-03-25T13:05:49;99431.91;;;11.73;60.50
54270;BME280;40181;51.560;13.000;2023-03-25T13:08:24;99434.41;;;11.87;60.95
54270;BME280;40181;51.560;13.000;2023-03-25T13:11:00;99447.56;;;11.90;61.07
54270;BME280;40181;51.560;13.000;2023-03-25T13:13:34;99442.28;;;11.90;62.38
54270;BME280;40181;51.560;13.000;2023-03-25T13:16:07;99441.88;;;11.40;63.76
54270;BME280;40181;51.560;13.000;2023-03-25T13:18:42;99436.38;;;11.66;64.31
54270;BME280;40181;51.560;13.000;2023-03-25T13:21:19;99446.88;;;11.68;64.18
54270;BME280;40181;51.560;13.000;2023-03-25T13:23:53;99429.00;;;12.01;64.21
54270;BME280;40181;51.560;13.000;2023-03-25T13:26:28;99438.50;;;12.21;63.87
54270;BME280;40181;51.560;13.000;2023-03-25T13:29:00;99451.66;;;12.19;63.37
54270;BME280;40181;51.560;13.000;2023-03-25T13:31:33;99448.41;;;11.92;63.56
54270;BME280;40181;51.560;13.000;2023-03-25T13:34:15;99435.28;;;11.89;63.42
54270;BME280;40181;51.560;13.000;2023-03-25T13:36:59;99430.88;;;11.91;64.22
54270;BME280;40181;51.560;13.000;2023-03-25T13:39:47;99433.81;;;11.57;62.91
54270;BME280;40181;51.560;13.000;2023-03-25T13:42:25;99433.81;;;11.58;63.70